Time;durP1;ratioP1;P1;durP2;ratioP2;P2;SDS_P1;SDS_P2;PMS_P1;PMS_P2;Temp;Humidity;BMP_temperature;BMP_pressure;BME280_temperature;BME280_humidity;BME280_pressure;Samples;Min_cycle;Max_cycle;Signal;HPM_P1;HPM_P2
2021/08/17 00:00:14;;;;;;;;;;;;;;;21.58;51.00;95781.59;1048809;28;815;-69
2021/08/17 00:00:44;;;;;;;;;;;;;;;21.58;51.07;95772.91;1044192;28;1282;-70
2021/08/17 00:01:15;;;;;;;;;;;;;;;21.58;51.30;95778.16;1044632;28;1179;-70
2021/08/17 00:01:45;;;;;;;;;;;;;;;21.58;51.05;95783.44;1044576;28;1134;-70
2021/08/17 00:02:15;;;;;;;;;;;;;;;21.57;51.01;95790.59;1048407;28;903;-71
2021/08/17 00:02:45;;;;;;;;;;;;;;;21.57;50.98;95787.16;1048382;28;1281;-70
2021/08/17 00:03:16;;;;;;;;;;;;;;;21.57;51.11;95787.97;1048816;28;931;-70
2021/08/17 00:03:46;;;;;;;;;;;;;;;21.58;50.98;95794.78;1043923;28;2708;-69
2021/08/17 00:04:16;;;;;;;;;;;;;;;21.58;51.13;95786.09;1039600;28;2602;-69
2021/08/17 00:04:46;;;;;;;;;;;;;;;21.58;51.12;95781.59;1042030;28;2275;-70
2021/08/17 00:05:17;;;;;;;;;;;;;;;21.57;50.89;95787.16;1040345;28;987;-69
2021/08/17 00:05:47;;;;;;;;;;;;;;;21.58;51.17;95780.81;1042536;28;1130;-70
2021/08/17 00:06:17;;;;;;;;;;;;;;;21.58;50.84;95786.88;1044445;28;1105;-70
2021/08/17 00:06:48;;;;;;;;;;;;;;;21.58;50.93;95791.34;1040843;28;1140;-70
2021/08/17 00:07:19;;;;;;;;;;;;;;;21.58;50.88;95784.25;1044407;28;1127;-71
2021/08/17 00:07:49;;;;;;;;;;;;;;;21.57;51.17;95785.31;1040470;28;1299;-70
2021/08/17 00:08:19;;;;;;;;;;;;;;;21.57;51.03;95789.81;1040556;28;1316;-70
2021/08/17 00:08:49;;;;;;;;;;;;;;;21.58;50.78;95786.09;1044448;28;1138;-70
2021/08/17 00:09:20;;;;;;;;;;;;;;;21.58;50.92;95791.34;1044399;28;1287;-69
2021/08/17 00:09:50;;;;;;;;;;;;;;;21.56;50.88;95789.00;1042932;28;2469;-70
2021/08/17 00:10:21;;;;;;;;;;;;;;;21.57;50.70;95795.06;1044262;28;2342;-70
2021/08/17 00:10:51;;;;;;;;;;;;;;;21.57;50.89;95787.16;1043918;28;1065;-69
2021/08/17 00:11:21;;;;;;;;;;;;;;;21.55;50.88;95784.81;1036464;28;1229;-70
2021/08/17 00:11:51;;;;;;;;;;;;;;;21.56;51.04;95788.22;1040366;28;1223;-70
2021/08/17 00:12:22;;;;;;;;;;;;;;;21.56;50.92;95782.94;1038148;28;1902;-70
2021/08/17 00:12:52;;;;;;;;;;;;;;;21.56;50.90;95788.22;1037661;28;1592;-70
2021/08/17 00:13:22;;;;;;;;;;;;;;;21.54;51.13;95780.59;1048748;28;1165;-70
2021/08/17 00:13:53;;;;;;;;;;;;;;;21.56;51.08;95785.56;1048937;28;1224;-70
2021/08/17 00:14:23;;;;;;;;;;;;;;;21.55;50.90;95787.44;1049137;28;887;-70
2021/08/17 00:14:54;;;;;;;;;;;;;;;21.55;51.30;95784.81;1047360;28;2457;-70
2021/08/17 00:15:24;;;;;;;;;;;;;;;21.57;50.98;95790.59;1048739;28;809;-70
2021/08/17 00:15:54;;;;;;;;;;;;;;;21.57;51.13;95784.53;1044432;28;1484;-70
2021/08/17 00:16:25;;;;;;;;;;;;;;;21.56;50.90;95778.47;1044587;28;1158;-70
2021/08/17 00:16:55;;;;;;;;;;;;;;;21.56;51.13;95783.72;1045973;28;1221;-70
2021/08/17 00:17:25;;;;;;;;;;;;;;;21.57;50.94;95787.16;1044171;28;757;-70
2021/08/17 00:17:56;;;;;;;;;;;;;;;21.56;51.27;95783.72;1049084;28;1146;-70
2021/08/17 00:18:26;;;;;;;;;;;;;;;21.56;51.08;95785.56;1049058;28;1141;-70
2021/08/17 00:18:56;;;;;;;;;;;;;;;21.55;51.23;95782.19;1048809;28;1114;-70
2021/08/17 00:19:26;;;;;;;;;;;;;;;21.56;51.17;95783.72;1048778;28;1232;-70
2021/08/17 00:19:57;;;;;;;;;;;;;;;21.57;50.93;95784.53;1047655;28;2519;-70
2021/08/17 00:20:27;;;;;;;;;;;;;;;21.57;51.21;95779.25;1044713;28;797;-70
2021/08/17 00:20:57;;;;;;;;;;;;;;;21.57;51.07;95779.25;1046224;28;1119;-70
2021/08/17 00:21:27;;;;;;;;;;;;;;;21.57;51.14;95780.03;1048692;28;1084;-70
2021/08/17 00:21:58;;;;;;;;;;;;;;;21.57;51.35;95780.03;1048628;28;1233;-70
2021/08/17 00:22:28;;;;;;;;;;;;;;;21.57;50.97;95781.88;1043389;28;1897;-70
2021/08/17 00:22:58;;;;;;;;;;;;;;;21.55;51.04;95779.53;1044166;28;1328;-70
2021/08/17 00:23:29;;;;;;;;;;;;;;;21.56;50.82;95777.66;1044406;28;1270;-70
2021/08/17 00:23:59;;;;;;;;;;;;;;;21.56;51.12;95775.03;1044585;28;1135;-70
2021/08/17 00:24:29;;;;;;;;;;;;;;;21.56;51.20;95777.66;1044222;28;1277;-70
2021/08/17 00:25:00;;;;;;;;;;;;;;;21.57;51.21;95779.25;1037516;28;2496;-70
2021/08/17 00:25:30;;;;;;;;;;;;;;;21.56;50.85;95772.38;1043459;28;2991;-71
2021/08/17 00:26:00;;;;;;;;;;;;;;;21.55;50.93;95770.84;1040244;28;1128;-70
2021/08/17 00:26:30;;;;;;;;;;;;;;;21.55;50.83;95765.56;1044657;28;871;-70
2021/08/17 00:27:01;;;;;;;;;;;;;;;21.55;50.79;95769.00;1048597;28;1197;-70
2021/08/17 00:27:31;;;;;;;;;;;;;;;21.54;50.91;95769.25;1048008;28;1205;-70
2021/08/17 00:28:02;;;;;;;;;;;;;;;21.54;51.04;95771.88;1048570;28;1229;-70
2021/08/17 00:28:32;;;;;;;;;;;;;;;21.53;51.07;95773.75;1046596;28;2903;-70
2021/08/17 00:29:02;;;;;;;;;;;;;;;21.54;51.21;95771.88;1047143;28;1076;-70
2021/08/17 00:29:33;;;;;;;;;;;;;;;21.54;51.30;95769.25;1048270;28;1205;-70
2021/08/17 00:30:04;;;;;;;;;;;;;;;21.54;51.21;95766.59;1047594;28;2584;-70
2021/08/17 00:30:34;;;;;;;;;;;;;;;21.53;51.15;95765.84;1049038;28;982;-70
2021/08/17 00:31:04;;;;;;;;;;;;;;;21.54;50.95;95771.88;1047374;28;1830;-70
2021/08/17 00:31:35;;;;;;;;;;;;;;;21.53;50.96;95765.03;1044435;28;998;-69
2021/08/17 00:32:05;;;;;;;;;;;;;;;21.53;50.72;95770.31;1043939;28;1961;-69
2021/08/17 00:32:35;;;;;;;;;;;;;;;21.52;50.88;95772.16;1044350;28;1142;-70
2021/08/17 00:33:06;;;;;;;;;;;;;;;21.52;50.92;95769.53;1048621;28;1276;-70
2021/08/17 00:33:36;;;;;;;;;;;;;;;21.51;51.19;95770.63;1048459;28;1305;-70
2021/08/17 00:34:06;;;;;;;;;;;;;;;21.51;50.96;95767.19;1044405;28;1202;-69
2021/08/17 00:34:37;;;;;;;;;;;;;;;21.51;51.06;95769.81;1044707;28;741;-69
2021/08/17 00:35:07;;;;;;;;;;;;;;;21.51;51.23;95770.63;1043364;28;2525;-69
2021/08/17 00:35:38;;;;;;;;;;;;;;;21.51;51.13;95769.81;1048433;28;1236;-70
2021/08/17 00:36:08;;;;;;;;;;;;;;;21.49;51.11;95770.09;1048615;28;1306;-70
2021/08/17 00:36:38;;;;;;;;;;;;;;;21.50;50.90;95774.28;1048641;28;1182;-70
2021/08/17 00:37:08;;;;;;;;;;;;;;;21.47;50.96;95772.22;1048307;28;1669;-70
2021/08/17 00:37:39;;;;;;;;;;;;;;;21.47;50.94;95774.88;1044306;28;1970;-69
2021/08/17 00:38:09;;;;;;;;;;;;;;;21.46;50.93;95767.22;1048528;28;1576;-70
2021/08/17 00:38:39;;;;;;;;;;;;;;;21.47;51.01;95771.44;1052339;28;1186;-70
2021/08/17 00:39:10;;;;;;;;;;;;;;;21.46;51.09;95772.50;1046063;28;1692;-69
2021/08/17 00:39:40;;;;;;;;;;;;;;;21.45;51.06;95773.56;1044226;28;1264;-69
2021/08/17 00:40:10;;;;;;;;;;;;;;;21.45;51.29;95774.34;1041081;28;2386;-70
2021/08/17 00:40:41;;;;;;;;;;;;;;;21.44;51.33;95779.91;1039978;28;793;-69
2021/08/17 00:41:12;;;;;;;;;;;;;;;21.46;51.22;95772.50;1039992;28;1259;-71
2021/08/17 00:41:42;;;;;;;;;;;;;;;21.46;51.37;95783.03;1040140;28;1199;-70
2021/08/17 00:42:12;;;;;;;;;;;;;;;21.45;51.19;95774.34;1044693;28;1147;-69
2021/08/17 00:42:43;;;;;;;;;;;;;;;21.46;51.22;95783.84;1041095;28;1380;-70
2021/08/17 00:43:13;;;;;;;;;;;;;;;21.46;51.42;95773.28;1045306;28;1242;-70
2021/08/17 00:43:43;;;;;;;;;;;;;;;21.48;51.34;95779.06;1049234;28;1186;-70
2021/08/17 00:44:23;;;;;;;;;;;;;;;21.48;51.14;95781.69;1045416;28;1355;-70
2021/08/17 00:44:53;;;;;;;;;;;;;;;21.48;51.18;95778.28;1045116;28;1292;-69
2021/08/17 00:45:24;;;;;;;;;;;;;;;21.47;51.01;95776.72;1044983;28;2492;-70
2021/08/17 00:45:55;;;;;;;;;;;;;;;21.48;51.21;95776.44;1049019;28;1174;-69
2021/08/17 00:46:25;;;;;;;;;;;;;;;21.47;51.06;95782.78;1049427;28;1190;-70
2021/08/17 00:46:56;;;;;;;;;;;;;;;21.47;51.32;95776.72;1049611;28;1102;-69
2021/08/17 00:47:26;;;;;;;;;;;;;;;21.46;51.30;95777.75;1049274;28;1061;-69
2021/08/17 00:47:56;;;;;;;;;;;;;;;21.46;51.33;95778.56;1049472;28;1122;-70
2021/08/17 00:48:26;;;;;;;;;;;;;;;21.45;51.22;95779.59;1047127;28;1880;-70
2021/08/17 00:48:57;;;;;;;;;;;;;;;21.46;51.26;95772.50;1047364;28;1130;-70
2021/08/17 00:49:27;;;;;;;;;;;;;;;21.46;51.14;95777.75;1049308;28;1593;-70
2021/08/17 00:49:57;;;;;;;;;;;;;;;21.46;51.39;95775.13;1047994;28;1557;-70
2021/08/17 00:50:28;;;;;;;;;;;;;;;21.47;51.33;95780.16;1048130;28;2880;-70
2021/08/17 00:50:58;;;;;;;;;;;;;;;21.47;51.37;95774.88;1049260;28;1221;-69
2021/08/17 00:51:29;;;;;;;;;;;;;;;21.47;51.28;95774.06;1042884;28;2487;-69
2021/08/17 00:52:00;;;;;;;;;;;;;;;21.47;51.34;95782.00;1041947;28;2540;-70
2021/08/17 00:52:30;;;;;;;;;;;;;;;21.47;51.34;95774.88;1045150;28;820;-69
2021/08/17 00:53:01;;;;;;;;;;;;;;;21.47;51.19;95774.88;1049312;28;1170;-70
2021/08/17 00:53:31;;;;;;;;;;;;;;;21.47;51.05;95774.88;1048673;28;2992;-70
2021/08/17 00:54:01;;;;;;;;;;;;;;;21.47;51.04;95779.34;1049527;28;1252;-70
2021/08/17 00:54:33;;;;;;;;;;;;;;;21.46;50.97;95772.50;1049129;28;2095;-70
2021/08/17 00:55:04;;;;;;;;;;;;;;;21.46;51.37;95772.50;1045739;28;2544;-69
2021/08/17 00:55:34;;;;;;;;;;;;;;;21.45;51.09;95774.34;1044777;28;994;-70
2021/08/17 00:56:04;;;;;;;;;;;;;;;21.44;51.03;95777.25;1040646;28;1739;-70
2021/08/17 00:56:36;;;;;;;;;;;;;;;21.42;51.30;95769.63;1044526;28;1947;-70
2021/08/17 00:57:06;;;;;;;;;;;;;;;21.44;51.31;95774.63;1043809;28;1145;-70
2021/08/17 00:57:36;;;;;;;;;;;;;;;21.43;51.16;95778.34;1045309;28;1158;-70
2021/08/17 00:58:07;;;;;;;;;;;;;;;21.43;51.43;95773.06;1041088;28;1318;-71
2021/08/17 00:58:37;;;;;;;;;;;;;;;21.42;51.32;95776.75;1038747;28;1143;-71
2021/08/17 00:59:08;;;;;;;;;;;;;;;21.41;51.46;95778.59;1042129;28;1269;-71
2021/08/17 00:59:38;;;;;;;;;;;;;;;21.42;51.38;95777.53;1041059;28;1344;-71
2021/08/17 01:00:09;;;;;;;;;;;;;;;21.42;51.54;95779.38;1046890;28;2467;-70
2021/08/17 01:00:39;;;;;;;;;;;;;;;21.42;51.44;95776.75;1046026;28;1193;-70
2021/08/17 01:01:09;;;;;;;;;;;;;;;21.41;51.34;95780.47;1049441;28;1087;-71
2021/08/17 01:01:40;;;;;;;;;;;;;;;21.39;51.17;95780.72;1049112;28;1582;-71
2021/08/17 01:02:10;;;;;;;;;;;;;;;21.39;51.07;95777.31;1048636;28;1201;-71
2021/08/17 01:02:40;;;;;;;;;;;;;;;21.39;51.49;95785.22;1048376;28;1044;-71
2021/08/17 01:03:11;;;;;;;;;;;;;;;21.39;51.36;95782.59;1049403;28;1174;-71
2021/08/17 01:03:41;;;;;;;;;;;;;;;21.40;51.43;95784.16;1049379;28;1186;-71
2021/08/17 01:04:11;;;;;;;;;;;;;;;21.40;51.15;95790.22;1047115;28;2915;-70
2021/08/17 01:04:42;;;;;;;;;;;;;;;21.39;51.45;95780.72;1045210;28;832;-71
2021/08/17 01:05:13;;;;;;;;;;;;;;;21.39;51.48;95793.13;1036045;28;2575;-70
2021/08/17 01:05:43;;;;;;;;;;;;;;;21.40;51.50;95786.78;1032855;28;1352;-71
2021/08/17 01:06:13;;;;;;;;;;;;;;;21.38;51.35;95786.28;1033090;28;1233;-71
2021/08/17 01:06:44;;;;;;;;;;;;;;;21.38;51.35;95788.91;1036905;28;1198;-71
2021/08/17 01:07:14;;;;;;;;;;;;;;;21.39;51.23;95791.25;1036813;28;1207;-71
2021/08/17 01:07:45;;;;;;;;;;;;;;;21.41;51.11;95791.00;1033163;28;1156;-71
2021/08/17 01:08:15;;;;;;;;;;;;;;;21.38;51.15;95789.72;1041197;28;795;-71
2021/08/17 01:08:54;;;;;;;;;;;;;;;21.38;51.32;95792.34;1039292;28;982;-71
2021/08/17 01:09:24;;;;;;;;;;;;;;;21.37;51.06;95785.47;1044985;28;1197;-70
2021/08/17 01:09:54;;;;;;;;;;;;;;;21.36;51.48;95789.19;1046466;28;1190;-71
2021/08/17 01:10:25;;;;;;;;;;;;;;;21.36;51.19;95791.03;1041679;28;2533;-71
2021/08/17 01:10:55;;;;;;;;;;;;;;;21.36;51.12;95791.03;1044752;28;1123;-71
2021/08/17 01:11:25;;;;;;;;;;;;;;;21.36;51.26;95791.84;1041163;28;705;-71
2021/08/17 01:11:56;;;;;;;;;;;;;;;21.33;51.21;95795.00;1046620;28;1963;-72
2021/08/17 01:12:26;;;;;;;;;;;;;;;21.33;51.01;95794.25;1049327;28;1162;-71
2021/08/17 01:12:57;;;;;;;;;;;;;;;21.31;51.24;95785.84;1045046;28;1372;-71
2021/08/17 01:13:28;;;;;;;;;;;;;;;21.30;51.01;95786.88;1048124;28;1959;-71
2021/08/17 01:13:59;;;;;;;;;;;;;;;21.30;50.97;95797.44;1044774;28;1362;-71
2021/08/17 01:14:29;;;;;;;;;;;;;;;21.30;51.49;95794.78;1041422;28;863;-70
2021/08/17 01:15:00;;;;;;;;;;;;;;;21.27;51.13;95796.13;1045094;28;1127;-71
2021/08/17 01:15:33;;;;;;;;;;;;;;;21.27;51.37;95787.44;1038086;28;2473;-71
2021/08/17 01:16:03;;;;;;;;;;;;;;;21.28;51.42;95787.16;1041387;28;1107;-71
2021/08/17 01:16:34;;;;;;;;;;;;;;;21.27;51.21;95787.44;1041063;28;1380;-71
2021/08/17 01:17:05;;;;;;;;;;;;;;;21.27;51.42;95784.81;1042031;28;1335;-70
2021/08/17 01:17:38;;;;;;;;;;;;;;;21.26;51.22;95786.66;1036904;28;1131;-71
2021/08/17 01:18:08;;;;;;;;;;;;;;;21.26;51.26;95783.22;1036951;28;1175;-70
2021/08/17 01:18:47;;;;;;;;;;;;;;;21.25;51.52;95781.63;1039073;28;1664;-71
2021/08/17 01:19:21;;;;;;;;;;;;;;;21.24;51.21;95780.06;1032512;28;1391;-71
2021/08/17 01:19:54;;;;;;;;;;;;;;;21.24;51.28;95785.34;1032245;28;1128;-71
2021/08/17 01:20:26;;;;;;;;;;;;;;;21.22;51.46;95782.22;1033849;28;2553;-71
2021/08/17 01:20:58;;;;;;;;;;;;;;;21.20;51.32;95779.84;1036887;28;2873;-70
2021/08/17 01:21:49;;;;;;;;;;;;;;;21.21;51.33;95783.25;1038143;28;1219;-71
2021/08/17 01:22:40;;;;;;;;;;;;;;;21.20;51.65;95789.59;1047596;28;1303;-70
2021/08/17 01:23:19;;;;;;;;;;;;;;;21.21;51.62;95788.53;1043271;28;1376;-71
2021/08/17 01:23:49;;;;;;;;;;;;;;;21.21;51.54;95793.78;1045760;28;1127;-71
2021/08/17 01:24:19;;;;;;;;;;;;;;;21.22;51.32;95798.81;1048425;28;1182;-71
2021/08/17 01:24:49;;;;;;;;;;;;;;;21.22;51.46;95795.38;1048918;28;1193;-71
2021/08/17 01:25:20;;;;;;;;;;;;;;;21.21;51.51;95797.22;1048199;28;2864;-71
2021/08/17 01:25:50;;;;;;;;;;;;;;;21.22;51.26;95804.09;1048438;28;1138;-70
2021/08/17 01:26:20;;;;;;;;;;;;;;;21.23;51.44;95804.84;1049467;28;1577;-71
2021/08/17 01:26:51;;;;;;;;;;;;;;;21.22;51.39;95804.09;1047594;28;1643;-70
2021/08/17 01:27:21;;;;;;;;;;;;;;;21.24;51.51;95806.44;1048664;28;1110;-70
2021/08/17 01:27:51;;;;;;;;;;;;;;;21.23;51.71;95803.00;1048975;28;1205;-71
2021/08/17 01:28:21;;;;;;;;;;;;;;;21.24;51.38;95806.44;1049249;28;1578;-71
2021/08/17 01:28:52;;;;;;;;;;;;;;;21.26;51.73;95806.94;1049056;28;1406;-70
2021/08/17 01:29:23;;;;;;;;;;;;;;;21.28;51.78;95807.47;1049355;28;1659;-71
2021/08/17 01:29:54;;;;;;;;;;;;;;;21.30;51.71;95815.88;1049436;28;1181;-71
2021/08/17 01:30:24;;;;;;;;;;;;;;;21.31;51.68;95820.88;1046947;28;2543;-70
2021/08/17 01:30:58;;;;;;;;;;;;;;;21.32;51.77;95824.31;1049261;28;1154;-70
2021/08/17 01:31:29;;;;;;;;;;;;;;;21.34;51.67;95819.53;1049509;28;922;-70
2021/08/17 01:31:59;;;;;;;;;;;;;;;21.36;51.86;95823.47;1045257;28;1960;-70
2021/08/17 01:32:29;;;;;;;;;;;;;;;21.37;51.61;95830.31;1044583;28;812;-71
2021/08/17 01:33:00;;;;;;;;;;;;;;;21.37;51.54;95832.94;1047004;28;1200;-70
2021/08/17 01:33:30;;;;;;;;;;;;;;;21.38;51.43;95825.84;1049302;28;1212;-70
2021/08/17 01:34:00;;;;;;;;;;;;;;;21.37;51.62;95822.41;1049449;28;1189;-71
2021/08/17 01:34:31;;;;;;;;;;;;;;;21.38;51.49;95823.19;1048559;28;3124;-71
2021/08/17 01:35:01;;;;;;;;;;;;;;;21.39;51.40;95835.34;1049126;28;1387;-70
2021/08/17 01:35:32;;;;;;;;;;;;;;;21.38;51.13;95831.09;1043160;28;2825;-70
2021/08/17 01:36:02;;;;;;;;;;;;;;;21.37;51.27;95838.22;1044820;28;1079;-70
2021/08/17 01:36:33;;;;;;;;;;;;;;;21.39;51.13;95837.97;1044579;28;2058;-70
2021/08/17 01:37:03;;;;;;;;;;;;;;;21.40;51.16;95836.88;1043261;28;1151;-70
2021/08/17 01:37:33;;;;;;;;;;;;;;;21.41;51.26;95843.75;1045045;28;1955;-71
2021/08/17 01:38:04;;;;;;;;;;;;;;;21.41;51.17;95838.47;1047571;28;1512;-71
2021/08/17 01:38:44;;;;;;;;;;;;;;;21.40;51.06;95836.88;1045347;28;1680;-71
2021/08/17 01:39:15;;;;;;;;;;;;;;;21.38;50.60;95844.28;1046255;28;1237;-71
2021/08/17 01:39:56;;;;;;;;;;;;;;;21.37;50.71;95838.22;1049325;28;1138;-70
2021/08/17 01:40:28;;;;;;;;;;;;;;;21.37;50.72;95837.47;1047518;28;2575;-71
2021/08/17 01:40:58;;;;;;;;;;;;;;;21.37;50.76;95850.66;1049463;28;1166;-71
2021/08/17 01:41:29;;;;;;;;;;;;;;;21.37;50.69;95842.72;1049385;28;804;-71
2021/08/17 01:42:00;;;;;;;;;;;;;;;21.36;50.47;95849.06;1048957;28;1146;-70
2021/08/17 01:42:30;;;;;;;;;;;;;;;21.35;50.34;95852.78;1048426;28;1539;-70
2021/08/17 01:43:00;;;;;;;;;;;;;;;21.34;50.42;95849.34;1049264;28;1213;-70
2021/08/17 01:43:31;;;;;;;;;;;;;;;21.32;50.28;95846.19;1048917;28;1254;-72
2021/08/17 01:44:12;;;;;;;;;;;;;;;21.31;50.14;95849.88;1048413;28;1682;-70
2021/08/17 01:44:42;;;;;;;;;;;;;;;21.30;50.13;95844.88;1041148;28;784;-70
2021/08/17 01:45:13;;;;;;;;;;;;;;;21.30;50.26;95845.69;1036534;28;2592;-70
2021/08/17 01:45:43;;;;;;;;;;;;;;;21.30;50.11;95848.31;1040027;28;2362;-70
2021/08/17 01:46:14;;;;;;;;;;;;;;;21.31;50.14;95849.09;1036967;28;1274;-71
2021/08/17 01:46:44;;;;;;;;;;;;;;;21.30;49.91;95847.53;1036734;28;1207;-70
2021/08/17 01:47:14;;;;;;;;;;;;;;;21.31;50.22;95852.50;1044452;28;1225;-71
2021/08/17 01:47:53;;;;;;;;;;;;;;;21.31;50.36;95847.25;1040884;28;1281;-70
2021/08/17 01:48:24;;;;;;;;;;;;;;;21.34;50.00;95851.97;1046140;28;1174;-71
2021/08/17 01:48:55;;;;;;;;;;;;;;;21.35;50.13;95850.91;1044988;28;1170;-71
2021/08/17 01:49:25;;;;;;;;;;;;;;;21.35;49.92;95856.16;1046254;28;1308;-70
2021/08/17 01:49:56;;;;;;;;;;;;;;;21.37;50.32;95855.91;1048574;28;2733;-69
2021/08/17 01:50:26;;;;;;;;;;;;;;;21.38;50.12;95852.19;1042286;28;2572;-71
2021/08/17 01:50:57;;;;;;;;;;;;;;;21.38;50.09;95855.63;1042928;28;2601;-70
2021/08/17 01:51:27;;;;;;;;;;;;;;;21.38;49.86;95847.72;1045326;28;505;-70
2021/08/17 01:51:57;;;;;;;;;;;;;;;21.39;50.02;95859.81;1040870;28;1902;-71
2021/08/17 01:52:28;;;;;;;;;;;;;;;21.38;50.01;95857.47;1040689;28;1353;-70
2021/08/17 01:52:58;;;;;;;;;;;;;;;21.38;49.76;95855.63;1044789;28;1126;-71
2021/08/17 01:53:29;;;;;;;;;;;;;;;21.39;50.05;95859.06;1044468;28;1182;-70
2021/08/17 01:54:01;;;;;;;;;;;;;;;21.39;50.27;95859.81;1048940;28;1142;-71
2021/08/17 01:54:31;;;;;;;;;;;;;;;21.39;49.85;95854.56;1047479;28;2151;-70
2021/08/17 01:55:03;;;;;;;;;;;;;;;21.39;49.71;95857.19;1049261;28;1185;-70
2021/08/17 01:55:33;;;;;;;;;;;;;;;21.39;49.85;95859.06;1047724;28;2918;-71
2021/08/17 01:56:07;;;;;;;;;;;;;;;21.38;49.39;95860.91;1049006;28;1118;-71
2021/08/17 01:56:37;;;;;;;;;;;;;;;21.38;49.61;95854.84;1049045;28;1141;-71
2021/08/17 01:57:07;;;;;;;;;;;;;;;21.39;49.83;95861.69;1048426;28;1123;-71
2021/08/17 01:57:41;;;;;;;;;;;;;;;21.39;49.82;95859.06;1045577;28;820;-71
2021/08/17 01:58:11;;;;;;;;;;;;;;;21.40;49.79;95858.78;1049039;28;1142;-71
2021/08/17 01:58:41;;;;;;;;;;;;;;;21.39;49.94;95861.69;1049170;28;1149;-71
2021/08/17 01:59:13;;;;;;;;;;;;;;;21.41;50.06;95864.84;1047724;28;1721;-70
2021/08/17 01:59:44;;;;;;;;;;;;;;;21.41;49.68;95864.84;1048970;28;1502;-71
2021/08/17 02:00:14;;;;;;;;;;;;;;;21.38;49.79;95860.91;1049199;28;1161;-70
2021/08/17 02:00:45;;;;;;;;;;;;;;;21.38;49.61;95865.38;1041027;28;2886;-70
2021/08/17 02:01:15;;;;;;;;;;;;;;;21.36;49.55;95868.31;1044864;28;1550;-71
2021/08/17 02:01:45;;;;;;;;;;;;;;;21.37;49.44;95866.47;1049085;28;1138;-71
2021/08/17 02:02:16;;;;;;;;;;;;;;;21.38;49.53;95865.38;1048516;28;1162;-71
2021/08/17 02:02:46;;;;;;;;;;;;;;;21.38;49.48;95870.66;1049186;28;1166;-70
2021/08/17 02:03:16;;;;;;;;;;;;;;;21.38;49.65;95866.19;1048822;28;1637;-70
2021/08/17 02:03:46;;;;;;;;;;;;;;;21.39;49.49;95866.97;1048758;28;2714;-70
2021/08/17 02:04:17;;;;;;;;;;;;;;;21.39;49.53;95866.97;1046516;28;2463;-71
2021/08/17 02:04:47;;;;;;;;;;;;;;;21.40;49.71;95863.25;1044973;28;1185;-71
2021/08/17 02:05:20;;;;;;;;;;;;;;;21.41;49.92;95862.22;1044833;28;1151;-71
2021/08/17 02:05:51;;;;;;;;;;;;;;;21.41;49.94;95862.22;1044517;28;2183;-71
2021/08/17 02:06:21;;;;;;;;;;;;;;;21.42;49.92;95866.41;1045326;28;1609;-71
2021/08/17 02:06:51;;;;;;;;;;;;;;;21.43;49.90;95860.09;1049002;28;1135;-71
2021/08/17 02:07:22;;;;;;;;;;;;;;;21.43;49.90;95868.75;1047414;28;1827;-71
2021/08/17 02:07:53;;;;;;;;;;;;;;;21.44;49.86;95870.34;1046070;28;1890;-71
2021/08/17 02:08:24;;;;;;;;;;;;;;;21.45;49.83;95860.59;1049030;28;1178;-71
2021/08/17 02:08:54;;;;;;;;;;;;;;;21.45;49.91;95865.88;1048962;28;1292;-69
2021/08/17 02:09:24;;;;;;;;;;;;;;;21.46;49.76;95867.44;1048832;28;1216;-69
2021/08/17 02:09:55;;;;;;;;;;;;;;;21.45;49.82;95850.03;1045040;28;1227;-69
2021/08/17 02:10:25;;;;;;;;;;;;;;;21.46;49.85;95868.22;1047931;28;2589;-70
2021/08/17 02:10:56;;;;;;;;;;;;;;;21.46;50.14;95865.59;1043000;28;1487;-70
2021/08/17 02:11:26;;;;;;;;;;;;;;;21.47;49.89;95863.75;1040784;28;907;-70
2021/08/17 02:11:56;;;;;;;;;;;;;;;21.48;50.12;95857.38;1040664;28;1206;-69
2021/08/17 02:12:26;;;;;;;;;;;;;;;21.49;50.03;95866.88;1039170;28;1906;-70
2021/08/17 02:12:57;;;;;;;;;;;;;;;21.48;49.90;95862.66;1044865;28;1143;-70
2021/08/17 02:13:28;;;;;;;;;;;;;;;21.49;49.61;95862.41;1048977;28;1299;-70
2021/08/17 02:13:59;;;;;;;;;;;;;;;21.50;49.97;95865.81;1049359;28;1156;-71
2021/08/17 02:14:29;;;;;;;;;;;;;;;21.50;49.92;95863.19;1049580;28;492;-70
2021/08/17 02:14:59;;;;;;;;;;;;;;;21.51;50.13;95870.84;1049355;28;1189;-71
2021/08/17 02:15:30;;;;;;;;;;;;;;;21.52;49.99;95866.31;1045350;28;2936;-70
2021/08/17 02:16:00;;;;;;;;;;;;;;;21.51;49.68;95856.84;1042960;28;1574;-70
2021/08/17 02:16:31;;;;;;;;;;;;;;;21.49;49.89;95851.88;1040819;28;1158;-71
2021/08/17 02:17:01;;;;;;;;;;;;;;;21.50;49.66;95852.63;1035919;28;1848;-71
2021/08/17 02:17:31;;;;;;;;;;;;;;;21.51;49.67;95862.13;1036089;28;1322;-70
2021/08/17 02:18:02;;;;;;;;;;;;;;;21.51;49.60;95854.22;1040888;28;1190;-71
2021/08/17 02:18:33;;;;;;;;;;;;;;;21.50;49.57;95857.91;1041640;28;1205;-70
2021/08/17 02:19:03;;;;;;;;;;;;;;;21.51;49.93;95859.50;1043809;28;1515;-71
2021/08/17 02:19:33;;;;;;;;;;;;;;;21.50;49.94;95861.34;1048929;28;1327;-71
2021/08/17 02:20:04;;;;;;;;;;;;;;;21.51;49.86;95864.75;1043763;28;2295;-70
2021/08/17 02:20:35;;;;;;;;;;;;;;;21.50;49.83;95861.34;1038720;28;2899;-70
2021/08/17 02:21:05;;;;;;;;;;;;;;;21.51;49.93;95864.75;1044698;28;1404;-71
2021/08/17 02:21:35;;;;;;;;;;;;;;;21.50;49.78;95863.97;1045070;28;774;-70
2021/08/17 02:22:06;;;;;;;;;;;;;;;21.51;49.75;95864.75;1044275;28;1288;-70
2021/08/17 02:22:36;;;;;;;;;;;;;;;21.51;49.74;95859.50;1044880;28;1306;-70
2021/08/17 02:23:06;;;;;;;;;;;;;;;21.49;49.88;95865.06;1044910;28;1151;-70
2021/08/17 02:23:38;;;;;;;;;;;;;;;21.51;49.72;95867.41;1040834;28;1335;-71
2021/08/17 02:24:09;;;;;;;;;;;;;;;21.50;49.65;95860.53;1040799;28;1219;-71
2021/08/17 02:24:40;;;;;;;;;;;;;;;21.49;49.81;95872.16;1044508;28;1777;-70
2021/08/17 02:25:10;;;;;;;;;;;;;;;21.50;49.51;95868.44;1045256;28;1210;-70
2021/08/17 02:25:41;;;;;;;;;;;;;;;21.47;49.50;95872.44;1047266;28;2560;-71
2021/08/17 02:26:11;;;;;;;;;;;;;;;21.48;49.96;95870.56;1044617;28;1219;-69
2021/08/17 02:26:41;;;;;;;;;;;;;;;21.47;49.74;95874.28;1044998;28;849;-70
2021/08/17 02:27:12;;;;;;;;;;;;;;;21.46;49.96;95876.13;1044244;28;1281;-70
2021/08/17 02:27:42;;;;;;;;;;;;;;;21.46;49.60;95873.50;1044768;28;1508;-71
2021/08/17 02:28:12;;;;;;;;;;;;;;;21.45;49.68;95881.69;1049116;28;1312;-70
2021/08/17 02:28:43;;;;;;;;;;;;;;;21.45;49.62;95871.16;1049472;28;1165;-70
2021/08/17 02:29:13;;;;;;;;;;;;;;;21.44;49.64;95877.47;1049029;28;1268;-70
2021/08/17 02:29:43;;;;;;;;;;;;;;;21.46;49.74;95880.63;1045116;28;1350;-70
2021/08/17 02:30:14;;;;;;;;;;;;;;;21.43;49.50;95874.03;1044631;28;1269;-70
2021/08/17 02:30:44;;;;;;;;;;;;;;;21.43;49.90;95879.31;1040355;28;2565;-70
2021/08/17 02:31:14;;;;;;;;;;;;;;;21.43;49.71;95878.53;1036783;28;1447;-71
2021/08/17 02:31:44;;;;;;;;;;;;;;;21.42;49.77;95875.13;1040790;28;1170;-70
2021/08/17 02:32:15;;;;;;;;;;;;;;;21.42;49.67;95876.97;1040186;28;1910;-71
2021/08/17 02:32:45;;;;;;;;;;;;;;;21.42;49.74;95887.50;1044862;28;1162;-70
2021/08/17 02:33:15;;;;;;;;;;;;;;;21.39;49.83;95878.28;1049060;28;1154;-70
2021/08/17 02:33:45;;;;;;;;;;;;;;;21.39;49.57;95875.66;1044922;28;1408;-70
2021/08/17 02:34:16;;;;;;;;;;;;;;;21.41;49.88;95889.34;1044506;28;1832;-69
2021/08/17 02:34:46;;;;;;;;;;;;;;;21.42;49.81;95887.50;1045745;28;1086;-70
2021/08/17 02:35:16;;;;;;;;;;;;;;;21.39;49.79;95883.56;1041525;28;1181;-70
2021/08/17 02:35:47;;;;;;;;;;;;;;;21.42;49.81;95887.50;1047071;28;2538;-71
2021/08/17 02:36:17;;;;;;;;;;;;;;;21.41;49.63;95891.22;1048925;28;1085;-70
2021/08/17 02:36:47;;;;;;;;;;;;;;;21.41;49.86;95891.22;1044743;28;1170;-70
2021/08/17 02:37:17;;;;;;;;;;;;;;;21.40;49.67;95887.00;1043653;28;1119;-70
2021/08/17 02:37:48;;;;;;;;;;;;;;;21.41;49.93;95885.94;1044191;28;1975;-70
2021/08/17 02:38:18;;;;;;;;;;;;;;;21.41;49.77;95891.22;1043197;28;1170;-70
2021/08/17 02:38:48;;;;;;;;;;;;;;;21.39;49.67;95891.47;1045219;28;1284;-70
2021/08/17 02:39:18;;;;;;;;;;;;;;;21.40;49.72;95887.00;1048447;28;1601;-70
2021/08/17 02:39:49;;;;;;;;;;;;;;;21.39;49.87;95890.72;1049395;28;1213;-69
2021/08/17 02:40:20;;;;;;;;;;;;;;;21.37;49.63;95896.22;1048990;28;1045;-69
2021/08/17 02:40:50;;;;;;;;;;;;;;;21.38;49.60;95892.56;1043044;28;2556;-70
2021/08/17 02:41:20;;;;;;;;;;;;;;;21.38;49.57;95889.13;1044904;28;1171;-70
2021/08/17 02:41:51;;;;;;;;;;;;;;;21.36;49.58;95897.31;1044945;28;1163;-70
2021/08/17 02:42:21;;;;;;;;;;;;;;;21.36;49.73;95899.94;1048556;28;999;-70
2021/08/17 02:42:51;;;;;;;;;;;;;;;21.35;49.56;95898.34;1048622;28;1322;-70